createdAt,value
2018-06-10T00:00:39.108Z,21.70
2018-06-10T00:03:08.064Z,21.77
2018-06-10T00:05:37.112Z,21.78
2018-06-10T00:08:06.141Z,21.76
2018-06-10T00:10:35.964Z,21.69
2018-06-10T00:13:05.116Z,21.62
2018-06-10T00:15:34.258Z,21.60
2018-06-10T00:18:03.248Z,21.56
2018-06-10T00:20:32.329Z,21.57
2018-06-10T00:23:01.380Z,21.60
2018-06-10T00:25:30.459Z,21.66
2018-06-10T00:27:59.667Z,21.70
2018-06-10T00:30:28.741Z,21.70
2018-06-10T00:32:57.781Z,21.62
2018-06-10T00:35:26.842Z,21.65
2018-06-10T00:37:55.945Z,21.69
2018-06-10T00:40:25.006Z,21.62
2018-06-10T00:42:54.077Z,21.67
2018-06-10T00:45:23.101Z,21.69
2018-06-10T00:47:52.048Z,21.62
2018-06-10T00:50:21.061Z,21.60
2018-06-10T00:52:50.150Z,21.57
2018-06-10T00:55:19.225Z,21.61
2018-06-10T00:57:48.193Z,21.48
2018-06-10T01:00:17.220Z,21.48
2018-06-10T01:02:46.228Z,21.49
2018-06-10T01:05:15.177Z,21.56
2018-06-10T01:07:44.285Z,21.59
2018-06-10T01:10:13.269Z,21.51
2018-06-10T01:12:43.980Z,21.43
2018-06-10T01:15:13.196Z,21.43
2018-06-10T01:17:42.188Z,21.36
2018-06-10T01:20:11.184Z,21.26
2018-06-10T01:22:40.180Z,21.27
2018-06-10T01:25:09.170Z,21.26
2018-06-10T01:27:38.108Z,21.31
2018-06-10T01:30:07.079Z,21.29
2018-06-10T01:32:36.125Z,21.31
2018-06-10T01:35:05.320Z,21.30
2018-06-10T01:37:34.341Z,21.21
2018-06-10T01:40:03.349Z,21.23
2018-06-10T01:42:32.339Z,20.90
2018-06-10T01:45:01.368Z,21.23
2018-06-10T01:47:30.356Z,21.26
2018-06-10T01:49:59.314Z,21.22
2018-06-10T01:52:28.317Z,21.26
2018-06-10T01:54:57.244Z,21.24
2018-06-10T01:57:26.320Z,21.22
2018-06-10T01:59:55.279Z,21.17
2018-06-10T02:02:24.619Z,21.13
2018-06-10T02:04:53.914Z,21.12
2018-06-10T02:07:23.215Z,21.11
2018-06-10T02:09:52.593Z,21.03
2018-06-10T02:12:21.520Z,21.03
2018-06-10T02:14:51.032Z,21.09
2018-06-10T02:17:20.032Z,21.05
2018-06-10T02:19:49.143Z,21.06
2018-06-10T02:22:18.188Z,21.01
2018-06-10T02:24:47.213Z,20.99
2018-06-10T02:27:16.277Z,21.03
2018-06-10T02:29:45.216Z,21.07
2018-06-10T02:32:14.215Z,21.13
2018-06-10T02:34:43.258Z,21.12
2018-06-10T02:37:12.182Z,21.11
2018-06-10T02:39:41.164Z,21.10
2018-06-10T02:42:10.248Z,21.17
2018-06-10T02:44:39.179Z,21.18
2018-06-10T02:47:08.172Z,21.16
2018-06-10T02:49:37.221Z,21.13
2018-06-10T02:52:06.386Z,21.12
2018-06-10T02:54:35.336Z,21.12
2018-06-10T02:57:04.334Z,21.07
2018-06-10T02:59:33.318Z,21.05
2018-06-10T03:02:02.354Z,21.09
2018-06-10T03:04:31.346Z,21.02
2018-06-10T03:07:00.296Z,21.02
2018-06-10T03:09:29.264Z,21.05
2018-06-10T03:11:59.202Z,21.07
2018-06-10T03:14:28.137Z,21.06
2018-06-10T03:16:57.220Z,21.07
2018-06-10T03:19:26.212Z,21.08
2018-06-10T03:21:55.143Z,21.15
2018-06-10T03:24:24.244Z,21.21
2018-06-10T03:26:53.236Z,21.22
2018-06-10T03:29:22.169Z,21.16
2018-06-10T03:31:51.173Z,21.22
2018-06-10T03:34:20.153Z,21.28
2018-06-10T03:36:49.304Z,21.31
2018-06-10T03:39:18.241Z,21.26
2018-06-10T03:41:47.200Z,21.23
2018-06-10T03:44:16.147Z,21.19
2018-06-10T03:46:45.133Z,21.12
2018-06-10T03:49:14.208Z,21.13
2018-06-10T03:51:43.190Z,21.22
2018-06-10T03:54:12.245Z,21.28
2018-06-10T03:56:41.203Z,21.33
2018-06-10T03:59:10.121Z,21.34
2018-06-10T04:01:39.173Z,21.38
2018-06-10T04:04:08.192Z,21.36
2018-06-10T04:06:37.123Z,21.35
2018-06-10T04:09:07.581Z,21.31
2018-06-10T04:11:36.692Z,21.37
2018-06-10T04:14:05.701Z,21.46
2018-06-10T04:16:34.644Z,21.61
2018-06-10T04:19:03.718Z,21.66
2018-06-10T04:21:32.748Z,21.69
2018-06-10T04:24:01.846Z,21.68
2018-06-10T04:26:30.868Z,21.73
2018-06-10T04:28:59.784Z,21.81
2018-06-10T04:31:28.700Z,21.92
2018-06-10T04:33:57.680Z,21.97
2018-06-10T04:36:26.592Z,22.15
2018-06-10T04:38:55.628Z,22.27
2018-06-10T04:41:24.643Z,22.48
2018-06-10T04:43:53.628Z,22.42
2018-06-10T04:46:22.540Z,22.17
2018-06-10T04:48:51.607Z,22.18
2018-06-10T04:51:20.789Z,22.14
2018-06-10T04:53:50.142Z,22.15
2018-06-10T04:56:19.132Z,22.30
2018-06-10T04:58:48.052Z,22.39
2018-06-10T05:01:16.960Z,22.38
2018-06-10T05:03:45.923Z,22.28
2018-06-10T05:06:14.875Z,22.27
2018-06-10T05:08:43.788Z,22.26
2018-06-10T05:11:12.757Z,22.26
2018-06-10T05:13:41.784Z,22.46
2018-06-10T05:16:10.836Z,22.65
2018-06-10T05:18:39.766Z,22.70
2018-06-10T05:21:08.740Z,22.85
2018-06-10T05:23:37.735Z,23.01
2018-06-10T05:26:06.713Z,23.11
2018-06-10T05:28:35.699Z,23.36
2018-06-10T05:31:04.704Z,23.55
2018-06-10T05:33:33.716Z,23.64
2018-06-10T05:36:02.768Z,23.76
2018-06-10T05:38:31.889Z,23.62
2018-06-10T05:41:01.017Z,23.65
2018-06-10T05:43:30.009Z,23.59
2018-06-10T05:45:59.100Z,23.65
2018-06-10T05:48:28.124Z,23.77
2018-06-10T05:50:57.097Z,23.66
2018-06-10T05:53:26.102Z,23.88
2018-06-10T05:55:55.191Z,24.19
2018-06-10T05:58:24.780Z,24.60
2018-06-10T06:00:53.845Z,24.56
2018-06-10T06:03:22.768Z,24.66
2018-06-10T06:05:51.837Z,24.95
2018-06-10T06:08:20.846Z,24.93
2018-06-10T06:10:49.832Z,24.64
2018-06-10T06:13:18.854Z,24.30
2018-06-10T06:15:47.913Z,24.20
2018-06-10T06:18:17.008Z,24.01
2018-06-10T06:20:45.933Z,23.84
2018-06-10T06:23:14.932Z,24.04
2018-06-10T06:25:43.932Z,24.20
2018-06-10T06:28:12.977Z,24.32
2018-06-10T06:30:41.984Z,24.35
2018-06-10T06:33:10.971Z,24.27
2018-06-10T06:35:40.049Z,24.34
2018-06-10T06:38:09.240Z,24.36
2018-06-10T06:40:38.163Z,24.08
2018-06-10T06:43:07.414Z,24.01
2018-06-10T06:45:36.916Z,24.05
2018-06-10T06:48:05.917Z,24.10
2018-06-10T06:50:34.888Z,23.89
2018-06-10T06:53:03.904Z,23.73
2018-06-10T06:55:32.939Z,23.74
2018-06-10T06:58:02.345Z,23.70
2018-06-10T07:00:31.396Z,23.70
2018-06-10T07:03:00.384Z,23.62
2018-06-10T07:05:29.340Z,23.65
2018-06-10T07:07:58.414Z,23.78
2018-06-10T07:10:27.363Z,23.79
2018-06-10T07:12:56.292Z,23.82
2018-06-10T07:15:25.225Z,23.79
2018-06-10T07:17:54.199Z,23.75
2018-06-10T07:20:23.264Z,23.95
2018-06-10T07:22:52.187Z,24.08
2018-06-10T07:25:21.133Z,24.11
2018-06-10T07:27:50.209Z,24.00
2018-06-10T07:30:19.200Z,23.75
2018-06-10T07:32:48.292Z,23.61
2018-06-10T07:35:17.280Z,23.51
2018-06-10T07:37:46.277Z,23.57
2018-06-10T07:40:15.352Z,23.52
2018-06-10T07:42:44.353Z,23.58
2018-06-10T07:45:13.465Z,23.60
2018-06-10T07:47:42.501Z,23.64
2018-06-10T07:50:11.500Z,23.85
2018-06-10T07:52:40.508Z,24.08
2018-06-10T07:55:09.533Z,24.26
2018-06-10T07:57:38.532Z,24.46
2018-06-10T08:00:07.587Z,24.53
2018-06-10T08:02:36.577Z,24.70
2018-06-10T08:05:05.680Z,24.80
2018-06-10T08:07:34.705Z,24.85
2018-06-10T08:10:03.792Z,24.80
2018-06-10T08:12:32.941Z,24.79
2018-06-10T08:15:02.068Z,24.82
2018-06-10T08:17:31.030Z,24.92
2018-06-10T08:20:00.026Z,25.04
2018-06-10T08:22:29.043Z,25.24
2018-06-10T08:24:58.086Z,25.39
2018-06-10T08:27:27.096Z,25.51
2018-06-10T08:29:56.289Z,25.65
2018-06-10T08:32:25.243Z,25.77
2018-06-10T08:34:54.348Z,25.78
2018-06-10T08:37:23.379Z,25.89
2018-06-10T08:39:52.292Z,26.16
2018-06-10T08:42:21.992Z,26.20
2018-06-10T08:44:50.976Z,26.05
2018-06-10T08:47:20.101Z,25.98
2018-06-10T08:49:49.044Z,25.98
2018-06-10T08:52:17.972Z,25.87
2018-06-10T08:54:46.962Z,26.01
2018-06-10T08:57:15.949Z,26.14
2018-06-10T08:59:44.977Z,26.30
2018-06-10T09:02:13.976Z,26.22
2018-06-10T09:04:43.324Z,26.39
2018-06-10T09:07:12.263Z,26.56
2018-06-10T09:09:41.278Z,26.74
2018-06-10T09:12:10.368Z,26.74
2018-06-10T09:14:39.355Z,26.87
2018-06-10T09:17:09.445Z,27.42
2018-06-10T09:19:38.676Z,28.01
2018-06-10T09:22:07.616Z,28.56
2018-06-10T09:24:36.668Z,28.97
2018-06-10T09:27:06.233Z,29.19
2018-06-10T09:29:35.296Z,29.21
2018-06-10T09:32:04.345Z,28.73
2018-06-10T09:34:33.360Z,27.83
2018-06-10T09:37:02.505Z,27.45
2018-06-10T09:39:32.627Z,26.96
2018-06-10T09:42:01.637Z,27.44
2018-06-10T09:44:30.645Z,27.42
2018-06-10T09:46:59.644Z,27.31
2018-06-10T09:49:28.728Z,27.40
2018-06-10T09:51:57.718Z,27.63
2018-06-10T09:54:26.656Z,27.98
2018-06-10T09:56:55.683Z,28.39
2018-06-10T09:59:24.764Z,29.20
2018-06-10T10:01:53.744Z,29.42
2018-06-10T10:04:22.732Z,29.28
2018-06-10T10:06:51.671Z,28.75
2018-06-10T10:09:20.616Z,28.57
2018-06-10T10:11:49.540Z,28.73
2018-06-10T10:14:18.516Z,28.62
2018-06-10T10:16:47.564Z,28.54
2018-06-10T10:19:16.672Z,28.21
2018-06-10T10:21:45.713Z,28.21
2018-06-10T10:24:15.046Z,28.41
2018-06-10T10:26:44.040Z,28.25
2018-06-10T10:29:13.032Z,28.32
2018-06-10T10:31:41.980Z,28.89
2018-06-10T10:34:10.962Z,29.32
2018-06-10T10:36:40.010Z,29.28
2018-06-10T10:39:09.092Z,29.11
2018-06-10T10:41:38.026Z,29.48
2018-06-10T10:44:06.983Z,29.93
2018-06-10T10:46:35.932Z,30.30
2018-06-10T10:49:04.888Z,30.46
2018-06-10T10:51:33.867Z,30.63
2018-06-10T10:54:02.880Z,30.90
2018-06-10T10:56:31.873Z,30.79
2018-06-10T10:59:00.853Z,30.85
2018-06-10T11:01:29.848Z,30.88
2018-06-10T11:03:58.900Z,30.93
2018-06-10T11:06:27.872Z,31.04
2018-06-10T11:08:56.956Z,31.31
2018-06-10T11:11:25.977Z,31.50
2018-06-10T11:13:54.928Z,31.47
2018-06-10T11:16:23.988Z,31.49
2018-06-10T11:18:53.003Z,31.44
2018-06-10T11:21:21.989Z,31.28
2018-06-10T11:23:50.984Z,30.94
2018-06-10T11:26:19.923Z,30.99
2018-06-10T11:28:48.912Z,31.17
2018-06-10T11:31:17.949Z,31.23
2018-06-10T11:33:46.961Z,31.02
2018-06-10T11:36:15.961Z,30.76
2018-06-10T11:38:44.892Z,30.70
2018-06-10T11:41:13.880Z,30.64
2018-06-10T11:43:42.864Z,30.85
2018-06-10T11:46:11.921Z,31.11
2018-06-10T11:48:40.937Z,31.50
2018-06-10T11:51:09.873Z,31.45
2018-06-10T11:53:38.843Z,31.57
2018-06-10T11:56:07.819Z,31.66
2018-06-10T11:58:36.797Z,31.53
2018-06-10T12:01:05.802Z,31.35
2018-06-10T12:03:34.748Z,31.16
2018-06-10T12:06:03.835Z,31.16
2018-06-10T12:08:32.830Z,31.25
2018-06-10T12:11:01.757Z,31.13
2018-06-10T12:13:30.751Z,31.08
2018-06-10T12:16:00.070Z,31.17
2018-06-10T12:18:29.125Z,31.21
2018-06-10T12:20:58.117Z,31.25
2018-06-10T12:23:27.052Z,31.46
2018-06-10T12:25:56.057Z,31.24
2018-06-10T12:28:25.064Z,30.81
2018-06-10T12:30:54.100Z,30.87
2018-06-10T12:33:23.106Z,30.78
2018-06-10T12:35:52.103Z,30.99
2018-06-10T12:38:21.048Z,31.20
2018-06-10T12:40:50.089Z,30.94
2018-06-10T12:43:19.132Z,30.91
2018-06-10T12:45:48.124Z,30.76
2018-06-10T12:48:17.204Z,30.68
2018-06-10T12:50:46.151Z,30.62
2018-06-10T12:53:15.071Z,30.54
2018-06-10T12:55:44.137Z,30.74
2018-06-10T12:58:13.070Z,30.57
2018-06-10T13:00:42.056Z,30.82
2018-06-10T13:03:11.033Z,30.65
2018-06-10T13:05:40.089Z,30.77
2018-06-10T13:08:09.184Z,30.86
2018-06-10T13:10:38.216Z,31.00
2018-06-10T13:13:07.204Z,30.90
2018-06-10T13:15:36.151Z,30.70
2018-06-10T13:18:05.348Z,30.71
2018-06-10T13:20:34.327Z,30.86
2018-06-10T13:23:03.442Z,30.77
2018-06-10T13:25:32.372Z,30.70
2018-06-10T13:28:01.401Z,30.52
2018-06-10T13:30:30.356Z,30.51
2018-06-10T13:32:59.335Z,30.46
2018-06-10T13:35:28.336Z,30.49
2018-06-10T13:37:57.348Z,30.46
2018-06-10T13:40:26.476Z,30.31
2018-06-10T13:42:56.788Z,30.36
2018-06-10T13:45:25.853Z,30.35
2018-06-10T13:47:54.884Z,30.43
2018-06-10T13:50:23.835Z,30.46
2018-06-10T13:52:52.789Z,30.36
2018-06-10T13:55:21.909Z,30.47
2018-06-10T13:57:50.899Z,30.41
2018-06-10T14:00:19.823Z,30.30
2018-06-10T14:02:49.027Z,30.24
2018-06-10T14:05:17.968Z,30.08
2018-06-10T14:07:47.035Z,29.86
2018-06-10T14:10:16.175Z,29.69
2018-06-10T14:12:45.188Z,29.60
2018-06-10T14:15:14.603Z,29.54
2018-06-10T14:17:43.588Z,29.52
2018-06-10T14:20:12.548Z,29.60
2018-06-10T14:22:41.602Z,29.81
2018-06-10T14:25:10.707Z,30.06
2018-06-10T14:27:39.696Z,30.35
2018-06-10T14:30:08.772Z,30.47
2018-06-10T14:32:37.764Z,30.57
2018-06-10T14:35:06.876Z,30.69
2018-06-10T14:37:35.884Z,30.57
2018-06-10T14:40:05.089Z,30.55
2018-06-10T14:42:34.175Z,30.61
2018-06-10T14:45:03.124Z,30.74
2018-06-10T14:47:32.153Z,30.71
2018-06-10T14:50:01.076Z,30.58
2018-06-10T14:52:30.000Z,30.38
2018-06-10T14:54:59.098Z,30.41
2018-06-10T14:57:28.081Z,30.45
2018-06-10T14:59:57.228Z,30.42
2018-06-10T15:02:26.272Z,30.56
2018-06-10T15:04:55.204Z,30.65
2018-06-10T15:07:24.192Z,30.71
2018-06-10T15:09:53.181Z,30.68
2018-06-10T15:12:22.273Z,30.78
2018-06-10T15:14:51.361Z,30.80
2018-06-10T15:17:20.632Z,30.67
2018-06-10T15:19:49.576Z,30.67
2018-06-10T15:22:18.564Z,30.66
2018-06-10T15:24:47.593Z,30.78
2018-06-10T15:27:16.511Z,30.78
2018-06-10T15:29:45.617Z,30.80
2018-06-10T15:32:14.669Z,30.66
2018-06-10T15:34:43.612Z,30.75
2018-06-10T15:37:12.835Z,30.75
2018-06-10T15:39:41.762Z,30.68
2018-06-10T15:42:10.680Z,30.70
2018-06-10T15:44:39.668Z,30.67
2018-06-10T15:47:08.788Z,30.66
2018-06-10T15:49:38.022Z,30.65
2018-06-10T15:52:07.150Z,30.66
2018-06-10T15:54:36.107Z,30.59
2018-06-10T15:57:05.113Z,30.71
2018-06-10T15:59:34.081Z,30.85
2018-06-10T16:02:03.129Z,30.95
2018-06-10T16:04:32.118Z,30.97
2018-06-10T16:07:01.045Z,30.89
2018-06-10T16:09:30.063Z,30.81
2018-06-10T16:11:59.136Z,30.77
2018-06-10T16:14:28.144Z,30.67
2018-06-10T16:16:57.173Z,30.61
2018-06-10T16:19:26.204Z,30.52
2018-06-10T16:21:55.188Z,30.39
2018-06-10T16:24:24.492Z,30.33
2018-06-10T16:26:53.540Z,30.15
2018-06-10T16:29:22.536Z,29.96
2018-06-10T16:31:51.845Z,29.78
2018-06-10T16:34:20.844Z,29.50
2018-06-10T16:36:49.848Z,29.35
2018-06-10T16:39:18.872Z,29.17
2018-06-10T16:41:47.856Z,29.00
2018-06-10T16:44:16.986Z,28.89
2018-06-10T16:46:45.994Z,28.78
2018-06-10T16:49:14.998Z,28.74
2018-06-10T16:51:43.980Z,28.66
2018-06-10T16:54:12.907Z,28.58
2018-06-10T16:56:41.844Z,28.54
2018-06-10T16:59:10.856Z,28.48
2018-06-10T17:01:39.907Z,28.41
2018-06-10T17:04:08.963Z,28.34
2018-06-10T17:06:37.917Z,28.26
2018-06-10T17:09:09.180Z,28.14
2018-06-10T17:11:38.328Z,28.00
2018-06-10T17:14:07.318Z,27.93
2018-06-10T17:16:36.679Z,27.92
2018-06-10T17:19:05.668Z,27.75
2018-06-10T17:21:34.685Z,27.69
2018-06-10T17:24:03.731Z,27.63
2018-06-10T17:26:32.725Z,27.51
2018-06-10T17:29:01.732Z,27.33
2018-06-10T17:31:30.681Z,27.23
2018-06-10T17:33:59.601Z,27.14
2018-06-10T17:36:28.536Z,27.03
2018-06-10T17:38:57.597Z,26.90
2018-06-10T17:41:26.592Z,26.73
2018-06-10T17:43:55.583Z,26.66
2018-06-10T17:46:24.608Z,26.54
2018-06-10T17:48:53.555Z,26.43
2018-06-10T17:51:22.591Z,26.31
2018-06-10T17:53:51.795Z,26.18
2018-06-10T17:56:20.748Z,26.11
2018-06-10T17:58:49.803Z,26.04
2018-06-10T18:01:18.870Z,26.00
2018-06-10T18:03:47.929Z,25.95
2018-06-10T18:06:16.964Z,25.84
2018-06-10T18:08:45.980Z,25.77
2018-06-10T18:11:15.110Z,25.79
2018-06-10T18:13:44.112Z,25.71
2018-06-10T18:16:13.059Z,25.62
2018-06-10T18:18:42.245Z,25.56
2018-06-10T18:21:11.341Z,25.54
2018-06-10T18:23:40.405Z,25.53
2018-06-10T18:26:09.451Z,25.54
2018-06-10T18:28:38.388Z,25.47
2018-06-10T18:31:07.348Z,25.42
2018-06-10T18:33:36.352Z,25.43
2018-06-10T18:36:05.495Z,25.42
2018-06-10T18:38:34.481Z,25.44
2018-06-10T18:41:03.537Z,25.41
2018-06-10T18:43:32.497Z,25.35
2018-06-10T18:46:01.533Z,25.25
2018-06-10T18:48:30.584Z,25.25
2018-06-10T18:50:59.512Z,25.09
2018-06-10T18:53:28.501Z,25.01
2018-06-10T18:55:57.578Z,24.86
2018-06-10T18:58:26.513Z,24.81
2018-06-10T19:00:55.504Z,24.77
2018-06-10T19:03:24.499Z,24.60
2018-06-10T19:05:53.541Z,24.59
2018-06-10T19:08:22.685Z,24.51
2018-06-10T19:10:51.641Z,24.50
2018-06-10T19:13:20.745Z,24.48
2018-06-10T19:15:49.708Z,24.43
2018-06-10T19:18:18.639Z,24.37
2018-06-10T19:20:47.740Z,24.30
2018-06-10T19:23:16.672Z,24.17
2018-06-10T19:25:45.748Z,24.10
2018-06-10T19:28:14.801Z,24.01
2018-06-10T19:30:43.740Z,23.99
2018-06-10T19:33:12.741Z,23.98
2018-06-10T19:35:41.737Z,23.96
2018-06-10T19:38:10.853Z,23.93
2018-06-10T19:40:39.852Z,23.89
2018-06-10T19:43:08.781Z,23.84
2018-06-10T19:45:37.780Z,23.88
2018-06-10T19:48:06.805Z,23.84
2018-06-10T19:50:35.812Z,23.82
2018-06-10T19:53:04.872Z,23.78
2018-06-10T19:55:33.916Z,23.69
2018-06-10T19:58:02.901Z,23.62
2018-06-10T20:00:31.893Z,23.51
2018-06-10T20:03:00.945Z,23.47
2018-06-10T20:05:29.884Z,23.45
2018-06-10T20:07:58.876Z,23.39
2018-06-10T20:10:27.868Z,23.38
2018-06-10T20:12:56.846Z,23.35
2018-06-10T20:15:26.133Z,23.37
2018-06-10T20:17:55.208Z,23.41
2018-06-10T20:20:24.154Z,23.41
2018-06-10T20:22:53.162Z,23.40
2018-06-10T20:25:22.133Z,23.41
2018-06-10T20:27:51.124Z,23.37
2018-06-10T20:30:20.145Z,23.36
2018-06-10T20:32:49.182Z,23.29
2018-06-10T20:35:18.488Z,23.24
2018-06-10T20:37:47.472Z,23.18
2018-06-10T20:40:16.464Z,23.14
2018-06-10T20:42:45.400Z,23.08
2018-06-10T20:45:14.344Z,23.08
2018-06-10T20:47:43.336Z,23.04
2018-06-10T20:50:12.389Z,23.06
2018-06-10T20:52:41.368Z,23.06
2018-06-10T20:55:10.417Z,23.02
2018-06-10T20:57:39.409Z,22.98
2018-06-10T21:00:08.485Z,22.94
2018-06-10T21:02:37.424Z,22.91
2018-06-10T21:05:06.538Z,22.85
2018-06-10T21:07:35.473Z,22.82
2018-06-10T21:10:04.504Z,22.83
2018-06-10T21:12:33.504Z,22.77
2018-06-10T21:15:02.432Z,22.66
2018-06-10T21:17:31.473Z,22.58
2018-06-10T21:20:00.404Z,22.52
2018-06-10T21:22:29.348Z,22.50
2018-06-10T21:24:58.292Z,22.46
2018-06-10T21:27:27.220Z,22.46
2018-06-10T21:29:56.272Z,22.40
2018-06-10T21:32:25.196Z,22.40
2018-06-10T21:34:54.233Z,22.37
2018-06-10T21:37:23.159Z,22.38
2018-06-10T21:39:52.086Z,22.37
2018-06-10T21:42:21.189Z,22.31
2018-06-10T21:44:50.600Z,22.32
2018-06-10T21:47:20.155Z,22.28
2018-06-10T21:49:49.140Z,22.26
2018-06-10T21:52:18.080Z,22.28
2018-06-10T21:54:47.112Z,22.22
2018-06-10T21:57:16.128Z,22.15
2018-06-10T21:59:45.157Z,22.14
2018-06-10T22:02:14.169Z,22.06
2018-06-10T22:04:43.440Z,22.02
2018-06-10T22:07:12.479Z,21.98
2018-06-10T22:09:41.698Z,21.93
2018-06-10T22:12:10.750Z,21.93
2018-06-10T22:14:39.853Z,22.01
2018-06-10T22:17:08.844Z,22.04
2018-06-10T22:19:37.933Z,22.07
2018-06-10T22:22:07.125Z,22.14
2018-06-10T22:24:36.124Z,22.09
2018-06-10T22:27:05.136Z,22.08
2018-06-10T22:29:34.128Z,21.36
2018-06-10T22:32:03.275Z,22.08
2018-06-10T22:34:32.227Z,22.09
2018-06-10T22:37:01.198Z,22.16
2018-06-10T22:39:30.184Z,22.22
2018-06-10T22:41:59.109Z,22.21
2018-06-10T22:44:28.277Z,22.17
2018-06-10T22:46:57.212Z,22.18
2018-06-10T22:49:26.168Z,22.16
2018-06-10T22:51:55.156Z,22.12
2018-06-10T22:54:47.483Z,22.09
2018-06-10T22:57:16.860Z,22.04
2018-06-10T22:59:46.284Z,22.06
2018-06-10T23:02:15.568Z,22.04
2018-06-10T23:04:44.846Z,22.01
2018-06-10T23:07:14.192Z,22.02
2018-06-10T23:09:43.424Z,21.96
2018-06-10T23:12:12.352Z,21.88
2018-06-10T23:14:41.307Z,21.86
2018-06-10T23:17:10.286Z,21.86
2018-06-10T23:19:39.389Z,21.87
2018-06-10T23:22:08.364Z,21.85
2018-06-10T23:24:37.296Z,21.79
2018-06-10T23:27:06.294Z,21.73
2018-06-10T23:29:35.212Z,21.65
2018-06-10T23:32:04.457Z,21.58
2018-06-10T23:34:33.444Z,21.51
2018-06-10T23:37:02.372Z,21.43
2018-06-10T23:39:31.461Z,21.33
2018-06-10T23:42:00.419Z,21.28
2018-06-10T23:44:29.401Z,21.16
2018-06-10T23:46:58.339Z,21.08
2018-06-10T23:49:27.324Z,21.02
2018-06-10T23:51:56.262Z,20.98
2018-06-10T23:54:25.201Z,20.92
2018-06-10T23:56:54.236Z,20.90
2018-06-10T23:59:23.164Z,20.85
